Time;durP1;ratioP1;P1;durP2;ratioP2;P2;SDS_P1;SDS_P2;PMS_P1;PMS_P2;Temp;Humidity;BMP_temperature;BMP_pressure;BME280_temperature;BME280_humidity;BME280_pressure;Samples;Min_cycle;Max_cycle;Signal;HPM_P1;HPM_P2
2021/03/03 07:41:50;;;;;;;44.65;22.05;;;;;;;0.76;82.94;99382.93;1888677;76;28588;-61
2021/03/03 07:44:19;;;;;;;23.98;14.20;;;;;;;0.73;82.78;99376.72;1779673;80;21551;-59
2021/03/03 07:46:48;;;;;;;18.20;12.30;;;;;;;0.80;82.60;99387.33;1818342;78;22064;-61
2021/03/03 07:49:23;;;;;;;17.77;13.08;;;;;;;0.90;82.44;99391.23;1758674;81;21031;-61
2021/03/03 07:51:51;;;;;;;16.25;12.15;;;;;;;0.97;82.30;99398.67;1792877;77;21613;-59
2021/03/03 07:54:20;;;;;;;16.27;11.73;;;;;;;1.07;82.22;99395.69;1851148;77;21563;-60
2021/03/03 07:56:50;;;;;;;14.23;10.10;;;;;;;1.17;81.89;99404.89;1804127;79;21524;-58
2021/03/03 07:59:17;;;;;;;17.77;11.15;;;;;;;1.20;81.22;99405.00;1851387;77;22067;-65
2021/03/03 08:01:48;;;;;;;14.78;10.72;;;;;;;1.14;81.10;99403.95;1803788;79;21579;-58
2021/03/03 08:04:40;;;;;;;12.47;10.10;;;;;;;1.09;81.11;99403.72;1795786;77;21049;-62
2021/03/03 08:07:25;;;;;;;16.62;11.57;;;;;;;1.07;81.15;99405.74;1803733;79;21558;-61
2021/03/03 08:10:23;;;;;;;16.97;12.40;;;;;;;1.07;81.24;99404.42;1830298;77;21151;-61
2021/03/03 08:13:06;;;;;;;17.07;12.78;;;;;;;1.17;81.23;99396.97;1822427;78;21295;-58
2021/03/03 08:15:44;;;;;;;19.73;11.83;;;;;;;1.21;81.10;99398.70;1754592;80;21165;-58
2021/03/03 08:18:22;;;;;;;20.12;13.18;;;;;;;1.24;80.94;99396.50;1771304;81;21141;-62
2021/03/03 08:21:00;;;;;;;17.42;12.20;;;;;;;1.30;80.94;99397.02;1771023;81;21164;-58
2021/03/03 08:23:45;;;;;;;19.42;12.80;;;;;;;1.38;80.83;99394.72;1775791;79;21059;-56
2021/03/03 08:26:21;;;;;;;18.90;14.03;;;;;;;1.37;80.77;99383.34;1777532;79;21274;-62
2021/03/03 08:28:52;;;;;;;17.05;12.23;;;;;;;1.38;80.54;99390.26;1775564;79;21150;-61
2021/03/03 08:31:24;;;;;;;20.15;13.28;;;;;;;1.41;80.44;99388.23;1771436;81;21150;-60
2021/03/03 08:33:56;;;;;;;22.85;14.38;;;;;;;1.42;80.35;99389.84;1793203;79;21108;-58
2021/03/03 08:36:34;;;;;;;18.62;13.05;;;;;;;1.37;80.35;99388.62;1788489;80;21165;-59
2021/03/03 08:39:10;;;;;;;20.88;13.68;;;;;;;1.41;80.42;99390.87;1791828;78;22121;-61
2021/03/03 08:41:39;;;;;;;23.35;15.00;;;;;;;1.49;80.53;99388.86;1779225;80;21599;-60
2021/03/03 08:44:10;;;;;;;26.20;14.85;;;;;;;1.58;80.38;99385.55;1776760;80;21135;-61
2021/03/03 08:46:46;;;;;;;22.67;14.80;;;;;;;1.62;80.22;99377.03;1777367;80;21117;-57
2021/03/03 08:49:25;;;;;;;24.55;15.55;;;;;;;1.63;80.12;99380.46;1777483;80;21520;-65
2021/03/03 08:52:09;;;;;;;21.70;13.98;;;;;;;1.65;79.92;99383.74;1789762;79;22416;-62
2021/03/03 08:54:41;;;;;;;19.40;13.90;;;;;;;1.71;79.68;99373.69;1808358;79;21444;-59
2021/03/03 08:57:32;;;;;;;22.50;15.70;;;;;;;1.77;79.53;99379.48;1805480;79;21443;-60
2021/03/03 09:00:01;;;;;;;21.00;14.85;;;;;;;1.79;79.40;99376.16;1808075;79;21237;-63
2021/03/03 09:02:36;;;;;;;17.23;12.35;;;;;;;1.80;79.12;99379.09;1805720;78;21178;-62
2021/03/03 09:05:11;;;;;;;20.92;13.32;;;;;;;1.79;78.56;99381.44;1807893;79;21077;-61
2021/03/03 09:07:39;;;;;;;23.90;14.80;;;;;;;1.76;78.26;99379.19;1808067;79;20945;-62
2021/03/03 09:10:15;;;;;;;21.07;14.65;;;;;;;1.76;78.25;99379.19;1807866;79;20980;-60
2021/03/03 09:12:45;;;;;;;21.37;15.55;;;;;;;1.71;78.20;99376.33;1797556;79;21192;-60
2021/03/03 09:15:16;;;;;;;20.15;12.80;;;;;;;1.69;78.18;99381.83;1791012;79;21177;-62
2021/03/03 09:17:45;;;;;;;22.40;14.68;;;;;;;1.68;78.19;99385.97;1762695;81;21549;-61
2021/03/03 09:20:16;;;;;;;23.60;15.25;;;;;;;1.71;78.19;99382.94;1767188;81;21245;-61
2021/03/03 09:22:46;;;;;;;23.60;15.53;;;;;;;1.77;78.20;99380.80;1750844;80;21116;-63
2021/03/03 09:25:20;;;;;;;22.25;15.63;;;;;;;1.77;78.25;99376.34;1746513;82;21158;-59
2021/03/03 09:27:55;;;;;;;25.10;16.23;;;;;;;1.79;78.28;99366.91;1746845;82;21064;-61
2021/03/03 09:30:27;;;;;;;29.98;18.05;;;;;;;1.86;78.21;99365.88;1756852;80;21421;-60
2021/03/03 09:32:56;;;;;;;23.67;16.35;;;;;;;1.96;78.29;99362.84;1776241;80;21150;-60
2021/03/03 09:35:30;;;;;;;21.42;15.72;;;;;;;2.02;78.19;99365.52;1776312;80;21569;-64
2021/03/03 09:37:59;;;;;;;23.27;15.15;;;;;;;2.06;77.87;99360.13;1776244;80;21477;-68
2021/03/03 09:40:29;;;;;;;22.58;15.55;;;;;;;2.04;77.58;99362.66;1777086;80;21056;-58
2021/03/03 09:42:59;;;;;;;20.80;14.23;;;;;;;1.99;77.59;99357.98;1781807;80;21370;-58
2021/03/03 09:45:28;;;;;;;30.60;18.30;;;;;;;2.03;77.53;99355.73;1820650;78;21025;-64
2021/03/03 09:47:58;;;;;;;25.82;16.93;;;;;;;2.09;77.43;99358.91;1818689;78;21167;-63
2021/03/03 09:50:30;;;;;;;26.95;16.93;;;;;;;2.18;77.39;99354.22;1820641;78;21168;-58
2021/03/03 09:52:59;;;;;;;27.85;17.77;;;;;;;2.24;77.14;99358.18;1820670;78;21579;-61
2021/03/03 09:55:35;;;;;;;27.85;16.37;;;;;;;2.30;76.65;99361.34;1832265;76;21383;-59
2021/03/03 09:58:03;;;;;;;25.52;17.45;;;;;;;2.27;76.44;99364.39;1845358;76;21557;-58
2021/03/03 10:00:40;;;;;;;26.50;16.62;;;;;;;2.18;76.47;99366.12;1850681;77;20950;-60
2021/03/03 10:03:13;;;;;;;27.32;17.70;;;;;;;2.20;76.45;99362.26;1758126;80;21082;-59
2021/03/03 10:05:43;;;;;;;24.52;17.02;;;;;;;2.19;76.49;99359.30;1845940;77;21129;-60
2021/03/03 10:08:14;;;;;;;27.52;17.23;;;;;;;2.20;76.59;99349.04;1843713;77;21377;-61
2021/03/03 10:10:46;;;;;;;31.48;19.30;;;;;;;2.27;76.48;99351.17;1853922;77;21033;-58
2021/03/03 10:13:21;;;;;;;31.52;19.77;;;;;;;2.32;76.37;99350.05;1853853;77;20879;-58
2021/03/03 10:15:57;;;;;;;29.95;20.25;;;;;;;2.36;76.39;99346.48;1854850;77;21090;-61
2021/03/03 10:18:27;;;;;;;36.28;22.90;;;;;;;2.44;76.41;99340.48;1854530;77;21139;-60
2021/03/03 10:20:57;;;;;;;33.80;20.48;;;;;;;2.56;75.99;99336.70;1853625;77;21258;-65
2021/03/03 10:23:30;;;;;;;30.48;19.52;;;;;;;2.55;75.79;99334.56;1826270;77;21160;-60
2021/03/03 10:26:08;;;;;;;35.30;22.93;;;;;;;2.51;75.81;99331.22;1854387;77;21168;-63
2021/03/03 10:28:37;;;;;;;32.40;19.98;;;;;;;2.51;75.62;99330.71;1844406;77;21137;-63
2021/03/03 10:31:23;;;;;;;36.73;23.83;;;;;;;2.53;75.31;99329.99;1820757;78;21071;-61
2021/03/03 10:33:52;;;;;;;35.08;22.75;;;;;;;2.57;75.31;99333.02;1820834;78;22024;-60
2021/03/03 10:36:21;;;;;;;32.48;21.68;;;;;;;2.58;75.20;99332.84;1820457;78;21575;-62
2021/03/03 10:38:55;;;;;;;33.63;21.07;;;;;;;2.54;75.30;99334.25;1840812;76;21168;-60
2021/03/03 10:41:30;;;;;;;31.82;21.55;;;;;;;2.56;75.34;99332.23;1850423;77;21520;-63
2021/03/03 10:43:58;;;;;;;34.65;23.67;;;;;;;2.57;75.17;99324.58;1849037;77;21077;-63
2021/03/03 10:46:28;;;;;;;34.85;22.58;;;;;;;2.58;75.19;99316.97;1848431;77;21376;-61
2021/03/03 10:49:11;;;;;;;36.30;23.30;;;;;;;2.62;75.29;99310.23;1848633;77;21125;-63
2021/03/03 10:51:41;;;;;;;34.98;20.90;;;;;;;2.69;75.16;99313.67;1848469;77;20999;-62
2021/03/03 10:54:10;;;;;;;33.92;21.07;;;;;;;2.76;74.49;99314.47;1847843;77;21576;-55
2021/03/03 10:56:44;;;;;;;32.83;23.20;;;;;;;2.77;74.46;99304.70;1846685;77;21171;-61
2021/03/03 10:59:30;;;;;;;31.75;21.55;;;;;;;2.84;74.38;99299.38;1847794;77;22097;-61
2021/03/03 11:02:01;;;;;;;34.53;22.58;;;;;;;2.91;74.23;99300.99;1847616;77;21061;-63
2021/03/03 11:04:44;;;;;;;38.58;25.02;;;;;;;2.95;73.97;99288.13;1847917;77;21152;-59
2021/03/03 11:07:14;;;;;;;37.28;25.23;;;;;;;2.99;73.92;99290.69;1847982;77;21187;-63
2021/03/03 11:09:53;;;;;;;37.25;25.82;;;;;;;3.02;73.61;99286.27;1847453;77;21173;-61
2021/03/03 11:12:24;;;;;;;44.25;27.02;;;;;;;3.06;73.38;99290.94;1820151;77;21421;-62
2021/03/03 11:14:52;;;;;;;42.67;26.93;;;;;;;3.09;73.44;99285.23;1848322;77;21539;-56
2021/03/03 11:17:20;;;;;;;38.35;26.87;;;;;;;3.19;73.42;99275.51;1848625;77;21450;-59
2021/03/03 11:19:49;;;;;;;41.13;27.60;;;;;;;3.31;73.16;99275.14;1848926;77;21053;-56
2021/03/03 11:22:17;;;;;;;41.18;27.58;;;;;;;3.40;72.82;99272.03;1848623;77;21149;-59
2021/03/03 11:24:46;;;;;;;39.70;25.77;;;;;;;3.46;72.65;99258.45;1826347;77;22086;-61
2021/03/03 11:27:15;;;;;;;44.05;28.25;;;;;;;3.51;72.55;99259.92;1814546;79;21223;-62
2021/03/03 11:29:43;;;;;;;40.48;25.30;;;;;;;3.60;72.28;99257.34;1815219;79;21180;-60
2021/03/03 11:32:13;;;;;;;42.05;28.15;;;;;;;3.73;71.80;99261.20;1815384;78;21074;-61
2021/03/03 11:34:42;;;;;;;42.17;29.50;;;;;;;3.80;71.63;99260.64;1815391;79;21209;-60
2021/03/03 11:37:10;;;;;;;42.33;28.73;;;;;;;3.86;71.57;99259.77;1815162;79;22520;-63
2021/03/03 11:39:38;;;;;;;43.30;27.15;;;;;;;3.99;71.30;99265.48;1815327;79;21191;-61
2021/03/03 11:42:07;;;;;;;43.48;29.52;;;;;;;4.01;70.36;99254.95;1815104;79;21093;-60
2021/03/03 11:44:36;;;;;;;44.48;31.35;;;;;;;3.95;70.52;99253.70;1814869;79;21172;-61
2021/03/03 11:47:05;;;;;;;47.43;31.85;;;;;;;3.96;70.47;99248.67;1815912;79;21113;-65
2021/03/03 11:49:34;;;;;;;45.45;32.40;;;;;;;3.96;70.22;99240.72;1815091;79;22332;-61
2021/03/03 11:52:05;;;;;;;41.58;28.45;;;;;;;4.02;70.29;99242.01;1814608;79;21468;-60
2021/03/03 11:54:33;;;;;;;43.13;29.72;;;;;;;4.07;69.67;99236.84;1814899;79;20998;-61
2021/03/03 11:57:02;;;;;;;47.03;31.77;;;;;;;4.09;69.38;99239.30;1814974;79;21496;-59
2021/03/03 11:59:30;;;;;;;42.78;29.90;;;;;;;4.08;69.12;99229.70;1814927;79;21535;-65
2021/03/03 12:02:00;;;;;;;51.18;31.85;;;;;;;4.09;69.26;99222.87;1814853;78;22514;-67
2021/03/03 12:04:28;;;;;;;44.55;30.85;;;;;;;4.15;69.54;99221.98;1814815;78;21473;-62
2021/03/03 12:06:56;;;;;;;41.37;27.58;;;;;;;4.23;69.28;99216.91;1853585;76;21116;-62
2021/03/03 12:09:25;;;;;;;47.08;31.10;;;;;;;4.27;68.89;99212.79;1805489;79;21145;-62
2021/03/03 12:11:53;;;;;;;51.70;34.35;;;;;;;4.33;69.05;99216.41;1805433;79;21580;-61
2021/03/03 12:14:21;;;;;;;57.20;33.98;;;;;;;4.42;68.51;99210.59;1882967;76;21509;-60
2021/03/03 12:16:51;;;;;;;50.60;33.58;;;;;;;4.48;68.46;99215.52;1805989;79;21141;-60
2021/03/03 12:19:19;;;;;;;48.23;33.42;;;;;;;4.51;68.03;99207.12;1883430;76;21441;-60
2021/03/03 12:21:48;;;;;;;51.42;32.58;;;;;;;4.51;68.02;99213.75;1791476;79;21483;-63
2021/03/03 12:24:16;;;;;;;47.45;33.85;;;;;;;4.55;68.08;99199.00;1778072;79;21529;-61
2021/03/03 12:26:46;;;;;;;52.83;33.58;;;;;;;4.63;68.27;99198.72;1776121;80;21330;-59
2021/03/03 12:29:14;;;;;;;49.48;32.20;;;;;;;4.72;67.41;99202.68;1776395;80;21157;-61
2021/03/03 12:31:46;;;;;;;50.08;33.08;;;;;;;4.75;67.48;99202.24;1775517;80;21240;-59
2021/03/03 12:34:16;;;;;;;43.52;30.00;;;;;;;4.77;66.75;99200.17;1775311;80;21216;-58
2021/03/03 12:36:44;;;;;;;47.25;31.95;;;;;;;4.79;66.94;99193.61;1775346;80;21619;-59
2021/03/03 12:39:17;;;;;;;44.48;31.45;;;;;;;5.01;66.81;99193.94;1792051;78;21618;-61
2021/03/03 12:41:48;;;;;;;47.65;30.88;;;;;;;5.33;66.15;99185.19;1768770;80;21173;-57
2021/03/03 12:44:19;;;;;;;52.55;34.80;;;;;;;5.59;65.78;99179.45;1847398;77;21588;-58
2021/03/03 12:46:51;;;;;;;48.63;32.42;;;;;;;5.90;64.88;99174.37;1847246;77;21485;-62
2021/03/03 12:49:22;;;;;;;49.15;34.50;;;;;;;6.07;64.19;99175.30;1847286;77;21121;-58
2021/03/03 12:51:57;;;;;;;53.40;35.90;;;;;;;6.14;63.80;99168.00;1781190;80;21553;-59
2021/03/03 12:54:50;;;;;;;52.05;33.33;;;;;;;6.22;63.31;99166.84;1765015;80;20945;-59
2021/03/03 12:57:22;;;;;;;50.38;34.95;;;;;;;6.32;63.03;99161.20;1804513;79;21093;-59
2021/03/03 12:59:54;;;;;;;47.65;33.60;;;;;;;6.38;62.37;99158.14;1774605;80;21196;-58
2021/03/03 13:02:28;;;;;;;45.52;32.42;;;;;;;6.41;62.78;99146.48;1777928;80;21162;-61
2021/03/03 13:05:02;;;;;;;47.48;32.90;;;;;;;6.61;63.03;99142.91;1758376;81;21357;-63
2021/03/03 13:07:35;;;;;;;40.60;29.98;;;;;;;6.86;62.18;99146.05;1791303;80;21205;-60
2021/03/03 13:10:12;;;;;;;50.33;32.93;;;;;;;7.06;61.83;99138.14;1792104;80;21082;-61
2021/03/03 13:12:46;;;;;;;43.48;31.00;;;;;;;7.27;60.56;99137.45;1803753;78;21540;-60
2021/03/03 13:15:21;;;;;;;48.28;32.95;;;;;;;7.29;60.36;99128.68;1829714;78;21125;-58
2021/03/03 13:17:56;;;;;;;48.28;32.15;;;;;;;7.37;60.27;99126.96;1823515;77;21018;-61
2021/03/03 13:20:27;;;;;;;41.88;30.90;;;;;;;7.48;60.05;99122.88;1812416;79;21174;-59
2021/03/03 13:23:02;;;;;;;47.48;33.02;;;;;;;7.61;59.52;99115.61;1789607;79;21188;-59
2021/03/03 13:25:35;;;;;;;49.77;33.25;;;;;;;7.76;59.43;99111.30;1787502;79;21182;-56
2021/03/03 13:28:07;;;;;;;45.75;31.65;;;;;;;7.92;58.54;99113.12;1824137;78;21152;-59
2021/03/03 13:30:39;;;;;;;46.77;30.90;;;;;;;7.93;58.22;99104.08;1823728;78;21197;-58
2021/03/03 13:33:12;;;;;;;39.20;30.37;;;;;;;7.94;58.41;99091.52;1823714;78;21909;-60
2021/03/03 13:35:50;;;;;;;49.77;32.38;;;;;;;8.07;58.19;99086.66;1824190;78;21127;-61
2021/03/03 13:38:26;;;;;;;41.10;31.25;;;;;;;8.16;57.92;99087.84;1824286;78;21012;-59
2021/03/03 13:40:57;;;;;;;43.17;31.15;;;;;;;8.31;57.61;99087.77;1824049;78;21608;-55
2021/03/03 13:43:29;;;;;;;42.67;30.88;;;;;;;8.42;57.12;99080.16;1823988;78;21422;-58
2021/03/03 13:46:05;;;;;;;44.53;30.90;;;;;;;8.51;57.16;99078.65;1823975;78;21569;-61
2021/03/03 13:48:36;;;;;;;45.67;31.68;;;;;;;8.62;56.72;99077.72;1823785;78;21051;-58
2021/03/03 13:51:11;;;;;;;43.73;32.83;;;;;;;8.69;56.53;99070.32;1801054;78;21205;-59
2021/03/03 13:53:41;;;;;;;48.08;32.10;;;;;;;8.76;56.21;99068.25;1773180;80;21122;-61
2021/03/03 13:56:13;;;;;;;42.40;30.75;;;;;;;8.79;56.13;99059.71;1772717;80;21201;-58
2021/03/03 13:58:46;;;;;;;44.90;32.55;;;;;;;8.91;56.09;99061.70;1771102;79;21556;-61
2021/03/03 14:01:17;;;;;;;46.05;34.38;;;;;;;8.99;55.80;99057.25;1786151;79;21249;-58
2021/03/03 14:03:49;;;;;;;58.15;36.80;;;;;;;9.04;55.65;99045.80;1796672;79;21150;-58
2021/03/03 14:06:23;;;;;;;50.95;36.58;;;;;;;9.06;55.79;99047.15;1768121;79;21192;-59
2021/03/03 14:08:55;;;;;;;46.60;33.98;;;;;;;9.09;55.72;99038.59;1802850;79;21375;-58
2021/03/03 14:11:36;;;;;;;48.75;34.58;;;;;;;9.09;55.60;99037.27;1795937;79;21615;-60
2021/03/03 14:14:10;;;;;;;46.28;32.17;;;;;;;9.12;55.24;99034.09;1725181;81;21196;-61
2021/03/03 14:16:44;;;;;;;54.90;38.17;;;;;;;9.08;55.04;99041.54;1752519;81;21856;-59
2021/03/03 14:19:16;;;;;;;64.42;44.50;;;;;;;8.95;55.49;99030.73;1752198;81;21208;-60
2021/03/03 14:21:48;;;;;;;56.85;43.13;;;;;;;8.79;55.97;99026.32;1752905;81;21480;-57
2021/03/03 14:24:19;;;;;;;48.55;35.83;;;;;;;8.68;56.33;99022.77;1754700;80;21133;-58
2021/03/03 14:26:54;;;;;;;49.60;37.50;;;;;;;8.63;56.65;99022.71;1753236;81;21231;-58
2021/03/03 14:29:29;;;;;;;48.52;35.13;;;;;;;8.54;56.97;99016.73;1753073;81;21137;-60
2021/03/03 14:32:00;;;;;;;50.65;35.33;;;;;;;8.46;57.32;99009.17;1731912;80;21561;-58
2021/03/03 14:34:32;;;;;;;58.48;38.88;;;;;;;8.43;57.48;99013.15;1754111;80;21474;-61
2021/03/03 14:37:08;;;;;;;51.98;38.28;;;;;;;8.35;57.66;99008.80;1753054;81;21177;-59
2021/03/03 14:39:48;;;;;;;61.10;41.73;;;;;;;8.17;58.09;99009.38;1754656;80;21148;-58
2021/03/03 14:42:24;;;;;;;65.95;45.65;;;;;;;8.02;58.58;99011.88;1784093;80;21153;-57
2021/03/03 14:44:56;;;;;;;54.58;38.92;;;;;;;7.89;58.96;99004.23;1784698;80;21046;-61
2021/03/03 14:47:28;;;;;;;63.10;42.43;;;;;;;7.74;59.35;98996.06;1783738;80;22240;-59
2021/03/03 14:50:01;;;;;;;59.53;43.70;;;;;;;7.59;59.80;98999.33;1783058;80;21686;-61
2021/03/03 14:52:32;;;;;;;62.30;41.48;;;;;;;7.56;60.14;98997.67;1782696;80;21196;-56
2021/03/03 14:55:09;;;;;;;64.58;42.30;;;;;;;7.52;60.33;98987.22;1782718;80;21619;-59
2021/03/03 14:57:41;;;;;;;64.70;42.78;;;;;;;7.55;60.46;98984.07;1759095;80;21164;-60
2021/03/03 15:00:14;;;;;;;61.60;41.30;;;;;;;7.64;60.43;98982.59;1773408;79;21211;-61
2021/03/03 15:02:42;;;;;;;54.03;38.67;;;;;;;7.75;60.24;98984.32;1781726;80;21191;-58
2021/03/03 15:05:10;;;;;;;54.23;38.00;;;;;;;7.71;60.13;98983.22;1779809;78;21600;-61
2021/03/03 15:15:54;;;;;;;63.78;38.35;;;;;;;6.62;62.21;98965.33;1887335;76;22657;-60
2021/03/03 15:18:23;;;;;;;64.80;40.50;;;;;;;6.34;62.78;98955.55;1853732;77;21378;-58
2021/03/03 15:20:52;;;;;;;54.53;37.40;;;;;;;6.15;63.36;98960.78;1849912;77;21358;-61
2021/03/03 15:23:21;;;;;;;60.45;39.30;;;;;;;5.99;63.87;98962.36;1792192;78;21107;-61
2021/03/03 15:25:50;;;;;;;61.55;43.13;;;;;;;5.86;64.33;98953.86;1790819;80;20943;-60
2021/03/03 15:28:18;;;;;;;59.48;41.95;;;;;;;5.73;64.66;98947.44;1790846;80;20984;-61
2021/03/03 15:30:46;;;;;;;58.58;40.08;;;;;;;5.61;65.09;98950.13;1790895;80;21537;-62
2021/03/03 15:33:15;;;;;;;65.52;43.17;;;;;;;5.47;65.52;98945.60;1790848;80;22054;-60
2021/03/03 15:35:44;;;;;;;55.58;40.67;;;;;;;5.35;65.85;98937.36;1790720;80;22007;-58
2021/03/03 15:38:13;;;;;;;57.80;38.98;;;;;;;5.24;66.22;98931.03;1790845;80;21023;-60
2021/03/03 15:40:41;;;;;;;65.78;42.85;;;;;;;5.16;66.57;98934.03;1789546;80;21213;-61
2021/03/03 15:43:10;;;;;;;60.70;39.10;;;;;;;5.10;66.94;98932.32;1789479;80;21644;-59
2021/03/03 15:45:37;;;;;;;70.80;44.75;;;;;;;5.01;67.16;98923.61;1789672;80;22822;-59
2021/03/03 15:48:08;;;;;;;66.15;41.83;;;;;;;4.90;67.49;98933.17;1789522;80;21193;-61
2021/03/03 15:50:37;;;;;;;70.87;44.08;;;;;;;4.78;68.04;98923.88;1789945;80;21628;-59
2021/03/03 15:53:05;;;;;;;63.87;40.95;;;;;;;4.66;68.53;98920.41;1789666;80;21628;-61
2021/03/03 15:55:34;;;;;;;60.58;41.13;;;;;;;4.53;68.81;98917.17;1790551;80;21042;-58
2021/03/03 15:58:02;;;;;;;78.57;46.90;;;;;;;4.41;69.06;98908.38;1790844;80;21904;-59
2021/03/03 16:00:30;;;;;;;71.53;48.35;;;;;;;4.33;69.33;98909.55;1790869;80;21498;-59
2021/03/03 16:02:59;;;;;;;69.03;47.58;;;;;;;4.25;69.56;98905.88;1790818;80;20916;-61
2021/03/03 16:05:28;;;;;;;69.15;45.75;;;;;;;4.18;69.84;98907.02;1790776;80;20944;-59
2021/03/03 16:07:56;;;;;;;66.28;43.48;;;;;;;4.10;70.09;98906.30;1790807;80;21546;-60
2021/03/03 16:10:24;;;;;;;62.88;39.33;;;;;;;4.05;70.34;98904.84;1790934;80;22099;-58
2021/03/03 16:12:55;;;;;;;61.20;40.12;;;;;;;4.02;70.50;98897.88;1791092;80;20944;-59
2021/03/03 16:15:23;;;;;;;59.40;38.78;;;;;;;3.94;70.66;98896.86;1785323;80;21765;-62
2021/03/03 16:17:51;;;;;;;56.40;37.23;;;;;;;3.83;70.84;98895.80;1821732;78;21457;-61
2021/03/03 16:20:19;;;;;;;61.60;37.65;;;;;;;3.75;71.11;98893.45;1821775;78;21453;-57
2021/03/03 16:22:48;;;;;;;55.15;34.73;;;;;;;3.68;71.35;98895.37;1821733;78;22372;-60
2021/03/03 16:25:16;;;;;;;56.08;34.65;;;;;;;3.60;71.56;98897.03;1821574;78;21148;-60
2021/03/03 16:27:44;;;;;;;60.75;39.53;;;;;;;3.53;71.71;98889.69;1821160;78;21570;-60
2021/03/03 16:30:13;;;;;;;55.85;38.35;;;;;;;3.46;71.83;98883.13;1821206;78;21738;-61
2021/03/03 16:32:42;;;;;;;54.90;36.93;;;;;;;3.40;72.05;98888.50;1821195;78;20935;-62
2021/03/03 16:35:11;;;;;;;63.48;41.20;;;;;;;3.32;72.26;98884.85;1821270;78;22751;-60
2021/03/03 16:37:39;;;;;;;59.08;38.63;;;;;;;3.28;72.47;98881.83;1821181;78;20895;-64
2021/03/03 16:40:10;;;;;;;54.20;36.68;;;;;;;3.22;72.63;98876.10;1821161;78;20947;-59
2021/03/03 16:42:39;;;;;;;63.80;40.15;;;;;;;3.17;72.69;98878.60;1821161;78;20927;-60
2021/03/03 16:45:10;;;;;;;83.95;56.08;;;;;;;3.12;72.76;98873.67;1821242;78;21512;-57
2021/03/03 16:47:39;;;;;;;127.80;79.53;;;;;;;3.06;72.75;98875.88;1821132;78;21416;-61
2021/03/03 16:50:08;;;;;;;100.10;66.80;;;;;;;2.99;72.80;98868.53;1821149;78;21567;-57
2021/03/03 16:52:37;;;;;;;75.45;48.58;;;;;;;2.94;72.86;98869.70;1821108;78;20994;-60
2021/03/03 16:55:08;;;;;;;88.20;54.80;;;;;;;2.86;73.15;98867.33;1821042;78;21006;-59
2021/03/03 16:57:37;;;;;;;67.67;44.13;;;;;;;2.76;73.49;98866.52;1821266;78;21540;-59
2021/03/03 17:00:08;;;;;;;62.15;40.63;;;;;;;2.68;73.73;98867.63;1821115;78;21378;-61
2021/03/03 17:02:36;;;;;;;69.27;41.88;;;;;;;2.64;73.97;98861.13;1821089;78;21006;-59
2021/03/03 17:05:07;;;;;;;95.70;59.08;;;;;;;2.59;74.21;98862.30;1821196;78;21517;-60
2021/03/03 17:07:34;;;;;;;92.78;54.55;;;;;;;2.58;74.55;98852.77;1821207;78;21528;-59
2021/03/03 17:10:04;;;;;;;91.20;54.55;;;;;;;2.54;74.76;98852.88;1821129;78;21473;-59
2021/03/03 17:12:33;;;;;;;87.53;53.63;;;;;;;2.52;74.93;98853.62;1821173;78;21349;-60
2021/03/03 17:15:04;;;;;;;88.45;55.48;;;;;;;2.49;75.13;98842.68;1819004;78;21448;-57
2021/03/03 17:17:32;;;;;;;98.87;59.40;;;;;;;2.45;75.29;98845.47;1816033;79;21449;-60
2021/03/03 17:20:00;;;;;;;82.05;51.58;;;;;;;2.42;75.52;98844.07;1816182;79;20947;-59
2021/03/03 17:22:29;;;;;;;69.25;43.48;;;;;;;2.39;75.57;98839.20;1816059;79;21109;-59
2021/03/03 17:24:56;;;;;;;61.75;42.53;;;;;;;2.37;75.64;98833.33;1816112;79;21897;-60
2021/03/03 17:27:25;;;;;;;83.72;51.65;;;;;;;2.34;75.62;98828.47;1815977;78;21148;-63
2021/03/03 17:29:55;;;;;;;118.30;70.85;;;;;;;2.30;75.49;98828.61;1815928;78;20990;-60
2021/03/03 17:32:24;;;;;;;170.80;98.20;;;;;;;2.23;75.35;98827.86;1816006;79;21604;-63
2021/03/03 17:34:52;;;;;;;204.47;125.75;;;;;;;2.17;75.21;98823.42;1815991;78;21092;-60
2021/03/03 17:37:20;;;;;;;203.02;127.95;;;;;;;2.07;75.20;98824.45;1816300;79;22698;-60
2021/03/03 17:39:48;;;;;;;190.70;114.22;;;;;;;1.94;75.29;98821.89;1815911;78;21476;-60
2021/03/03 17:42:18;;;;;;;186.32;116.80;;;;;;;1.80;75.48;98813.26;1815953;79;21002;-59
2021/03/03 17:44:48;;;;;;;179.18;114.28;;;;;;;1.71;75.65;98808.45;1816063;79;20979;-60
2021/03/03 17:47:16;;;;;;;183.62;115.03;;;;;;;1.64;75.81;98807.68;1816132;79;21006;-62
2021/03/03 17:49:45;;;;;;;186.92;113.52;;;;;;;1.62;75.98;98803.13;1815891;79;21369;-62
2021/03/03 17:52:13;;;;;;;184.78;114.12;;;;;;;1.59;76.09;98804.86;1815873;79;21472;-61
2021/03/03 17:54:43;;;;;;;157.75;94.77;;;;;;;1.58;76.24;98797.45;1815943;78;20946;-63
2021/03/03 17:57:11;;;;;;;142.30;83.03;;;;;;;1.56;76.51;98803.96;1815950;78;20950;-59
2021/03/03 17:59:39;;;;;;;141.57;85.67;;;;;;;1.52;76.57;98791.71;1815931;78;21447;-63
2021/03/03 18:02:07;;;;;;;137.03;86.80;;;;;;;1.50;76.74;98790.30;1815911;79;22293;-59
2021/03/03 18:04:36;;;;;;;131.55;81.75;;;;;;;1.47;76.89;98791.53;1815919;79;21133;-59
2021/03/03 18:07:05;;;;;;;125.40;81.80;;;;;;;1.47;77.18;98791.53;1815881;79;21453;-60
2021/03/03 18:09:34;;;;;;;142.80;86.47;;;;;;;1.49;77.23;98789.48;1815969;79;21465;-61
2021/03/03 18:12:04;;;;;;;154.35;93.45;;;;;;;1.52;77.23;98788.25;1815912;79;20915;-61
2021/03/03 18:14:32;;;;;;;150.22;88.78;;;;;;;1.54;77.27;98788.34;1816417;78;21327;-58
2021/03/03 18:17:01;;;;;;;147.50;88.75;;;;;;;1.57;77.24;98781.83;1824223;78;21477;-59
